createdAt,value
2023-01-11T00:00:01.560Z,2.65
2023-01-11T00:03:02.235Z,2.40
2023-01-11T00:05:47.826Z,1.95
2023-01-11T00:08:38.558Z,4.28
2023-01-11T00:11:24.145Z,2.38
2023-01-11T00:14:09.934Z,2.20
2023-01-11T00:16:59.103Z,3.00
2023-01-11T00:19:45.084Z,4.15
2023-01-11T00:22:30.855Z,2.45
2023-01-11T00:25:16.625Z,2.20
2023-01-11T00:28:02.513Z,2.05
2023-01-11T00:30:49.351Z,1.60
2023-01-11T00:33:35.508Z,2.35
2023-01-11T00:36:21.783Z,1.10
2023-01-11T00:39:07.650Z,5.03
2023-01-11T00:42:11.988Z,2.42
2023-01-11T00:45:31.177Z,1.35
2023-01-11T00:48:17.187Z,1.45
2023-01-11T00:51:02.789Z,1.70
2023-01-11T00:53:48.564Z,3.90
2023-01-11T00:56:35.916Z,1.55
2023-01-11T00:59:21.797Z,2.67
2023-01-11T01:02:09.472Z,1.80
2023-01-11T01:04:55.418Z,2.70
2023-01-11T01:07:42.155Z,1.98
2023-01-11T01:10:28.322Z,1.40
2023-01-11T01:13:32.539Z,2.20
2023-01-11T01:16:19.484Z,1.85
2023-01-11T01:19:05.314Z,1.60
2023-01-11T01:21:51.344Z,3.17
2023-01-11T01:24:37.104Z,2.78
2023-01-11T01:27:22.829Z,2.78
2023-01-11T01:30:08.869Z,2.15
2023-01-11T01:32:56.087Z,2.65
2023-01-11T01:35:41.752Z,3.78
2023-01-11T01:38:28.415Z,3.35
2023-01-11T01:41:15.028Z,2.05
2023-01-11T01:44:25.991Z,2.38
2023-01-11T01:47:12.215Z,2.50
2023-01-11T01:49:59.516Z,5.18
2023-01-11T01:52:48.526Z,3.20
2023-01-11T01:55:36.468Z,4.80
2023-01-11T01:58:27.282Z,3.83
2023-01-11T02:01:32.830Z,3.28
2023-01-11T02:04:40.464Z,2.38
2023-01-11T02:07:33.599Z,3.88
2023-01-11T02:10:21.328Z,5.40
2023-01-11T02:13:10.262Z,3.33
2023-01-11T02:16:09.068Z,2.35
2023-01-11T02:18:55.876Z,1.20
2023-01-11T02:22:03.341Z,1.70
2023-01-11T02:24:49.149Z,2.92
2023-01-11T02:28:07.693Z,1.70
2023-01-11T02:31:11.744Z,3.20
2023-01-11T02:34:12.493Z,1.73
2023-01-11T02:37:20.054Z,3.05
2023-01-11T02:40:56.748Z,2.05
2023-01-11T02:44:17.933Z,2.33
2023-01-11T02:47:07.173Z,1.30
2023-01-11T02:50:16.732Z,1.60
2023-01-11T02:53:26.784Z,2.25
2023-01-11T02:56:25.848Z,1.45
2023-01-11T02:59:14.552Z,1.80
2023-01-11T03:02:00.673Z,1.63
2023-01-11T03:04:46.367Z,2.08
2023-01-11T03:07:57.807Z,2.00
2023-01-11T03:10:56.491Z,2.15
2023-01-11T03:14:04.735Z,3.22
2023-01-11T03:17:25.991Z,2.20
2023-01-11T03:20:35.561Z,1.50
2023-01-11T03:23:43.167Z,3.72
2023-01-11T03:26:44.421Z,2.05
2023-01-11T03:29:40.382Z,2.08
2023-01-11T03:32:44.724Z,2.42
2023-01-11T03:35:45.331Z,1.80
2023-01-11T03:38:37.822Z,1.65
2023-01-11T03:41:27.994Z,2.00
2023-01-11T03:44:15.039Z,2.13
2023-01-11T03:47:06.058Z,1.45
2023-01-11T03:50:07.571Z,1.38
2023-01-11T03:52:57.815Z,2.10
2023-01-11T03:55:44.756Z,1.20
2023-01-11T03:58:30.762Z,1.50
2023-01-11T04:01:16.938Z,3.13
2023-01-11T04:04:02.852Z,0.85
2023-01-11T04:06:48.741Z,1.13
2023-01-11T04:09:36.288Z,2.65
2023-01-11T04:12:23.286Z,4.40
2023-01-11T04:15:09.847Z,1.73
2023-01-11T04:17:56.020Z,1.42
2023-01-11T04:20:41.682Z,1.23
2023-01-11T04:23:27.472Z,2.03
2023-01-11T04:26:13.186Z,1.00
2023-01-11T04:29:02.787Z,0.98
2023-01-11T04:31:48.573Z,0.90
2023-01-11T04:34:34.282Z,1.00
2023-01-11T04:37:21.036Z,1.27
2023-01-11T04:40:07.639Z,0.93
2023-01-11T04:42:53.710Z,2.05
2023-01-11T04:45:39.367Z,1.30
2023-01-11T04:48:25.024Z,1.00
2023-01-11T04:51:10.480Z,1.95
2023-01-11T04:53:56.024Z,0.80
2023-01-11T04:56:41.724Z,1.60
2023-01-11T04:59:27.670Z,1.65
2023-01-11T05:02:14.421Z,1.55
2023-01-11T05:05:00.279Z,1.40
2023-01-11T05:07:51.793Z,1.40
2023-01-11T05:10:38.142Z,1.58
2023-01-11T05:13:43.805Z,2.75
2023-01-11T05:16:29.875Z,1.35
2023-01-11T05:19:15.736Z,3.40
2023-01-11T05:22:01.370Z,3.13
2023-01-11T05:24:46.965Z,5.75
2023-01-11T05:27:33.138Z,3.03
2023-01-11T05:30:18.901Z,2.50
2023-01-11T05:33:04.437Z,1.55
2023-01-11T05:35:50.191Z,6.00
2023-01-11T05:38:35.915Z,2.80
2023-01-11T05:41:23.300Z,1.92
2023-01-11T05:44:31.427Z,1.73
2023-01-11T05:47:17.285Z,2.47
2023-01-11T05:50:03.087Z,2.00
2023-01-11T05:52:48.777Z,1.63
2023-01-11T05:55:34.530Z,2.40
2023-01-11T05:58:20.310Z,2.83
2023-01-11T06:01:06.615Z,2.53
2023-01-11T06:03:52.813Z,2.33
2023-01-11T06:06:38.845Z,2.80
2023-01-11T06:09:25.047Z,1.77
2023-01-11T06:12:11.132Z,1.35
2023-01-11T06:14:56.905Z,2.10
2023-01-11T06:17:42.727Z,2.00
2023-01-11T06:20:28.411Z,0.70
2023-01-11T06:23:14.075Z,1.30
2023-01-11T06:26:07.724Z,2.13
2023-01-11T06:31:39.301Z,1.20
2023-01-11T06:34:25.174Z,1.60
2023-01-11T06:37:11.074Z,1.42
2023-01-11T06:39:56.642Z,2.65
2023-01-11T06:42:43.365Z,3.60
2023-01-11T06:45:29.183Z,2.70
2023-01-11T06:48:14.922Z,4.47
2023-01-11T06:51:00.975Z,5.85
2023-01-11T06:53:46.638Z,6.68
2023-01-11T06:56:32.263Z,8.05
2023-01-11T06:59:18.111Z,7.00
2023-01-11T07:02:04.073Z,4.22
2023-01-11T07:04:50.369Z,5.65
2023-01-11T07:07:37.466Z,4.45
2023-01-11T07:10:23.271Z,4.07
2023-01-11T07:13:10.972Z,3.08
2023-01-11T07:16:02.324Z,3.22
2023-01-11T07:18:48.139Z,2.03
2023-01-11T07:21:34.176Z,2.58
2023-01-11T07:24:20.441Z,2.03
2023-01-11T07:27:06.030Z,2.70
2023-01-11T07:29:53.520Z,2.45
2023-01-11T07:32:39.406Z,4.47
2023-01-11T07:35:26.858Z,3.20
2023-01-11T07:38:13.588Z,3.63
2023-01-11T07:40:59.205Z,11.93
2023-01-11T07:43:44.793Z,8.40
2023-01-11T07:46:30.551Z,10.93
2023-01-11T07:49:16.389Z,11.15
2023-01-11T07:52:02.148Z,7.63
2023-01-11T07:54:47.812Z,15.90
2023-01-11T07:57:34.794Z,4.07
2023-01-11T08:00:21.231Z,3.53
2023-01-11T08:03:08.364Z,6.88
2023-01-11T08:06:06.991Z,2.25
2023-01-11T08:08:52.980Z,1.92
2023-01-11T08:11:57.152Z,2.53
2023-01-11T08:14:43.241Z,3.30
2023-01-11T08:17:29.220Z,3.17
2023-01-11T08:20:15.045Z,3.05
2023-01-11T08:23:05.755Z,2.03
2023-01-11T08:25:56.788Z,3.60
2023-01-11T08:28:46.477Z,5.22
2023-01-11T08:31:32.373Z,5.80
2023-01-11T08:34:17.928Z,37.58
2023-01-11T08:37:07.707Z,73.43
2023-01-11T08:39:55.885Z,33.17
2023-01-11T08:42:41.883Z,13.25
2023-01-11T08:45:29.039Z,11.35
2023-01-11T08:48:16.200Z,11.18
2023-01-11T08:51:02.173Z,9.07
2023-01-11T08:53:48.025Z,59.38
2023-01-11T08:56:33.632Z,38.40
2023-01-11T08:59:20.149Z,66.07
2023-01-11T09:02:06.760Z,28.58
2023-01-11T09:04:52.545Z,13.38
2023-01-11T09:07:38.268Z,24.75
2023-01-11T09:10:27.149Z,15.30
2023-01-11T09:13:13.246Z,12.93
2023-01-11T09:15:59.155Z,17.35
2023-01-11T09:18:44.834Z,17.48
2023-01-11T09:21:31.211Z,10.07
2023-01-11T09:24:17.254Z,6.13
2023-01-11T09:27:04.928Z,6.00
2023-01-11T09:29:51.081Z,6.75
2023-01-11T09:32:36.872Z,12.13
2023-01-11T09:35:22.815Z,10.55
2023-01-11T09:38:08.845Z,51.20
2023-01-11T09:41:24.286Z,10.23
2023-01-11T09:44:16.725Z,7.70
2023-01-11T09:47:30.813Z,5.57
2023-01-11T09:50:31.224Z,7.88
2023-01-11T09:56:46.066Z,7.70
2023-01-11T09:59:50.830Z,6.28
2023-01-11T10:03:19.521Z,7.28
2023-01-11T10:06:09.380Z,8.88
2023-01-11T10:18:27.477Z,5.93
2023-01-11T10:19:18.058Z,2.95
2023-01-11T10:22:12.238Z,2.13
2023-01-11T10:25:11.576Z,1.55
2023-01-11T10:28:05.036Z,1.50
2023-01-11T10:30:58.446Z,6.47
2023-01-11T10:34:04.337Z,9.18
2023-01-11T10:37:27.251Z,5.72
2023-01-11T10:40:30.562Z,5.78
2023-01-11T10:43:21.829Z,4.43
2023-01-11T10:46:17.559Z,5.28
2023-01-11T10:49:32.982Z,6.30
2023-01-11T10:52:39.142Z,7.53
2023-01-11T10:58:30.927Z,5.55
2023-01-11T11:01:32.883Z,3.77
2023-01-11T11:04:39.546Z,8.32
2023-01-11T11:07:34.738Z,19.95
2023-01-11T11:10:26.659Z,23.33
2023-01-11T11:13:12.576Z,5.18
2023-01-11T11:16:01.353Z,11.98
2023-01-11T11:18:49.573Z,9.15
2023-01-11T11:21:37.711Z,12.30
2023-01-11T11:24:42.469Z,3.17
2023-01-11T11:27:38.599Z,7.32
2023-01-11T11:30:38.280Z,3.70
2023-01-11T11:33:38.462Z,9.27
2023-01-11T11:36:24.791Z,3.22
2023-01-11T11:39:20.845Z,3.78
2023-01-11T11:42:10.665Z,4.90
2023-01-11T11:45:11.961Z,1.50
2023-01-11T11:48:02.422Z,2.60
2023-01-11T11:50:49.556Z,1.77
2023-01-11T11:53:55.961Z,4.32
2023-01-11T11:56:42.268Z,6.90
2023-01-11T11:59:30.305Z,2.78
2023-01-11T12:02:29.086Z,13.18
2023-01-11T12:05:15.289Z,8.10
2023-01-11T12:08:01.442Z,72.78
2023-01-11T12:10:50.067Z,6.47
2023-01-11T12:13:37.906Z,8.25
2023-01-11T12:16:31.659Z,13.07
2023-01-11T12:22:22.809Z,2.92
2023-01-11T12:25:08.805Z,2.53
2023-01-11T12:28:01.043Z,3.47
2023-01-11T12:31:00.562Z,3.40
2023-01-11T12:34:01.698Z,3.85
2023-01-11T12:36:50.346Z,2.88
2023-01-11T12:39:50.243Z,3.15
2023-01-11T12:42:55.537Z,4.03
2023-01-11T12:45:50.590Z,3.65
2023-01-11T12:48:42.332Z,4.70
2023-01-11T12:51:37.238Z,12.85
2023-01-11T12:54:44.897Z,5.55
2023-01-11T12:58:00.737Z,5.85
2023-01-11T13:01:17.721Z,3.13
2023-01-11T13:04:22.290Z,3.55
2023-01-11T13:07:37.258Z,1.27
2023-01-11T13:10:43.143Z,11.77
2023-01-11T13:13:51.415Z,3.38
2023-01-11T13:17:11.664Z,1.30
2023-01-11T13:20:03.655Z,1.42
2023-01-11T13:22:53.889Z,1.48
2023-01-11T13:25:42.976Z,3.13
2023-01-11T13:28:36.338Z,4.20
2023-01-11T13:31:23.022Z,3.13
2023-01-11T13:34:24.516Z,2.83
2023-01-11T13:37:20.166Z,2.65
2023-01-11T13:40:29.357Z,2.08
2023-01-11T13:43:19.919Z,2.70
2023-01-11T13:46:16.544Z,1.17
2023-01-11T13:49:10.861Z,2.30
2023-01-11T13:51:59.582Z,6.40
2023-01-11T13:55:07.149Z,26.17
2023-01-11T13:57:57.088Z,4.68
2023-01-11T14:00:52.647Z,23.35
2023-01-11T14:03:55.554Z,28.98
2023-01-11T14:07:00.887Z,31.33
2023-01-11T14:09:59.807Z,10.57
2023-01-11T14:13:07.945Z,6.00
2023-01-11T14:15:58.754Z,5.47
2023-01-11T14:19:20.421Z,6.63
2023-01-11T14:22:24.607Z,3.95
2023-01-11T14:25:28.343Z,1.83
2023-01-11T14:28:44.944Z,3.30
2023-01-11T14:32:07.111Z,4.43
2023-01-11T14:35:25.233Z,3.28
2023-01-11T14:38:32.536Z,3.92
2023-01-11T14:41:49.358Z,8.85
2023-01-11T14:44:54.266Z,4.40
2023-01-11T14:47:55.292Z,2.80
2023-01-11T14:50:50.375Z,3.35
2023-01-11T14:53:46.392Z,3.25
2023-01-11T14:56:35.527Z,5.05
2023-01-11T14:59:30.720Z,2.17
2023-01-11T15:02:17.932Z,3.58
2023-01-11T15:05:05.677Z,6.50
2023-01-11T15:07:51.514Z,3.65
2023-01-11T15:10:37.387Z,3.78
2023-01-11T15:13:28.393Z,4.07
2023-01-11T15:16:45.470Z,4.70
2023-01-11T15:19:34.220Z,4.30
2023-01-11T15:22:28.751Z,5.95
2023-01-11T15:25:25.193Z,6.88
2023-01-11T15:28:50.178Z,3.55
2023-01-11T15:31:40.869Z,6.30
2023-01-11T15:34:38.966Z,2.10
2023-01-11T15:37:48.524Z,4.18
2023-01-11T15:40:39.271Z,4.28
2023-01-11T15:43:51.587Z,3.38
2023-01-11T15:47:11.702Z,6.18
2023-01-11T15:50:35.565Z,2.47
2023-01-11T15:53:39.122Z,2.83
2023-01-11T15:57:00.342Z,6.82
2023-01-11T16:00:24.951Z,3.75
2023-01-11T16:03:36.196Z,3.22
2023-01-11T16:06:35.417Z,2.63
2023-01-11T16:09:41.937Z,3.05
2023-01-11T16:12:49.664Z,8.93
2023-01-11T16:15:57.435Z,8.55
2023-01-11T16:18:46.773Z,5.57
2023-01-11T16:21:40.597Z,5.35
2023-01-11T16:24:29.555Z,5.07
2023-01-11T16:27:31.178Z,11.20
2023-01-11T16:30:20.588Z,12.80
2023-01-11T16:33:28.278Z,9.02
2023-01-11T16:36:21.185Z,6.10
2023-01-11T16:39:12.661Z,6.77
2023-01-11T16:42:03.277Z,2.70
2023-01-11T16:45:01.965Z,4.13
2023-01-11T16:48:07.990Z,3.97
2023-01-11T16:51:04.223Z,7.45
2023-01-11T16:53:57.990Z,3.38
2023-01-11T16:56:48.503Z,4.93
2023-01-11T16:59:36.462Z,3.58
2023-01-11T17:02:32.721Z,5.60
2023-01-11T17:05:24.394Z,11.52
2023-01-11T17:08:35.038Z,7.60
2023-01-11T17:11:57.150Z,6.07
2023-01-11T17:15:18.296Z,3.88
2023-01-11T17:18:04.774Z,4.85
2023-01-11T17:20:53.857Z,4.93
2023-01-11T17:23:39.906Z,4.38
2023-01-11T17:26:28.346Z,4.00
2023-01-11T17:29:24.130Z,5.60
2023-01-11T17:32:27.475Z,3.97
2023-01-11T17:35:36.596Z,5.50
2023-01-11T17:38:24.991Z,12.15
2023-01-11T17:41:33.416Z,4.45
2023-01-11T17:44:41.112Z,4.85
2023-01-11T17:47:28.022Z,4.85
2023-01-11T17:50:24.209Z,2.88
2023-01-11T17:53:28.401Z,5.47
2023-01-11T17:56:32.367Z,4.97
2023-01-11T18:02:14.933Z,14.85
2023-01-11T18:05:02.175Z,24.95
2023-01-11T18:07:52.109Z,32.65
2023-01-11T18:10:39.835Z,21.88
2023-01-11T18:13:31.561Z,48.80
2023-01-11T18:16:19.490Z,56.63
2023-01-11T18:19:30.488Z,21.35
2023-01-11T18:22:31.156Z,31.23
2023-01-11T18:25:21.259Z,7.30
2023-01-11T18:28:21.319Z,5.55
2023-01-11T18:31:10.265Z,5.40
2023-01-11T18:33:56.005Z,3.55
2023-01-11T18:36:41.823Z,4.43
2023-01-11T18:39:28.435Z,7.72
2023-01-11T18:42:17.118Z,8.32
2023-01-11T18:45:03.265Z,12.23
2023-01-11T18:47:49.170Z,6.60
2023-01-11T18:50:35.323Z,5.10
2023-01-11T18:53:23.689Z,6.60
2023-01-11T18:56:09.556Z,9.32
2023-01-11T18:58:55.441Z,7.65
2023-01-11T19:01:54.529Z,6.13
2023-01-11T19:04:47.110Z,6.70
2023-01-11T19:07:33.273Z,17.88
2023-01-11T19:10:21.107Z,8.68
2023-01-11T19:13:07.045Z,13.23
2023-01-11T19:15:53.189Z,7.35
2023-01-11T19:18:38.841Z,8.00
2023-01-11T19:21:24.491Z,9.88
2023-01-11T19:24:10.241Z,8.25
2023-01-11T19:26:56.169Z,8.98
2023-01-11T19:29:42.238Z,9.73
2023-01-11T19:32:28.034Z,10.00
2023-01-11T19:35:13.869Z,10.88
2023-01-11T19:37:59.823Z,8.07
2023-01-11T19:40:46.654Z,11.90
2023-01-11T19:43:33.585Z,7.32
2023-01-11T19:46:30.837Z,9.00
2023-01-11T19:49:18.175Z,8.00
2023-01-11T19:52:04.305Z,9.80
2023-01-11T19:54:51.489Z,9.63
2023-01-11T19:57:37.124Z,6.72
2023-01-11T20:00:23.043Z,8.55
2023-01-11T20:03:09.237Z,7.68
2023-01-11T20:06:04.737Z,9.75
2023-01-11T20:08:51.310Z,9.02
2023-01-11T20:11:37.602Z,10.70
2023-01-11T20:14:23.248Z,9.80
2023-01-11T20:17:08.930Z,11.95
2023-01-11T20:19:54.916Z,13.90
2023-01-11T20:22:44.580Z,19.85
2023-01-11T20:25:30.541Z,16.77
2023-01-11T20:28:17.923Z,18.60
2023-01-11T20:31:06.696Z,23.85
2023-01-11T20:33:53.688Z,25.75
2023-01-11T20:36:39.444Z,25.90
2023-01-11T20:39:26.084Z,38.28
2023-01-11T20:42:12.934Z,42.65
2023-01-11T20:44:59.369Z,40.22
2023-01-11T20:47:45.520Z,45.58
2023-01-11T20:50:31.476Z,39.85
2023-01-11T20:53:17.421Z,41.28
2023-01-11T20:56:06.441Z,47.58
2023-01-11T20:58:52.533Z,49.63
2023-01-11T21:01:38.637Z,53.22
2023-01-11T21:04:24.382Z,44.80
2023-01-11T21:07:10.135Z,46.00
2023-01-11T21:09:55.929Z,45.58
2023-01-11T21:12:41.665Z,40.42
2023-01-11T21:15:27.453Z,35.83
2023-01-11T21:18:13.440Z,43.55
2023-01-11T21:20:59.265Z,39.40
2023-01-11T21:23:46.129Z,40.58
2023-01-11T21:26:32.834Z,42.80
2023-01-11T21:29:18.730Z,42.50
2023-01-11T21:32:04.815Z,45.28
2023-01-11T21:34:51.069Z,41.25
2023-01-11T21:37:37.091Z,37.60
2023-01-11T21:40:22.962Z,18.83
2023-01-11T21:43:09.041Z,16.65
2023-01-11T21:45:58.406Z,20.20
2023-01-11T21:48:44.346Z,18.58
2023-01-11T21:51:30.122Z,17.88
2023-01-11T21:54:18.778Z,32.60
2023-01-11T21:57:04.774Z,36.80
2023-01-11T21:59:50.839Z,40.00
2023-01-11T22:02:36.659Z,39.05
2023-01-11T22:05:24.413Z,42.70
2023-01-11T22:08:10.106Z,45.38
2023-01-11T22:10:57.627Z,40.60
2023-01-11T22:13:45.529Z,43.05
2023-01-11T22:16:33.037Z,38.83
2023-01-11T22:19:19.147Z,72.68
2023-01-11T22:22:06.574Z,34.63
2023-01-11T22:24:52.287Z,24.38
2023-01-11T22:27:37.909Z,19.90
2023-01-11T22:30:23.568Z,22.30
2023-01-11T22:33:09.375Z,26.15
2023-01-11T22:35:55.605Z,20.70
2023-01-11T22:38:41.525Z,17.08
2023-01-11T22:41:27.540Z,19.08
2023-01-11T22:44:13.880Z,19.58
2023-01-11T22:47:00.601Z,21.77
2023-01-11T22:49:46.317Z,20.95
2023-01-11T22:52:32.999Z,28.45
2023-01-11T22:55:18.976Z,33.97
2023-01-11T22:58:04.543Z,41.05
2023-01-11T23:00:51.778Z,37.80
2023-01-11T23:03:39.526Z,56.50
2023-01-11T23:06:28.118Z,64.15
2023-01-11T23:09:16.601Z,54.83
2023-01-11T23:12:20.990Z,47.58
2023-01-11T23:15:07.900Z,44.30
2023-01-11T23:17:53.758Z,47.55
2023-01-11T23:20:39.438Z,28.90
2023-01-11T23:23:27.385Z,25.67
2023-01-11T23:26:13.419Z,14.25
2023-01-11T23:28:59.430Z,17.40
2023-01-11T23:31:45.169Z,13.80
2023-01-11T23:34:30.847Z,12.50
2023-01-11T23:37:16.699Z,13.25
2023-01-11T23:40:02.480Z,14.85
2023-01-11T23:42:48.157Z,11.90
2023-01-11T23:45:37.030Z,10.07
2023-01-11T23:48:26.558Z,11.00
2023-01-11T23:51:12.131Z,8.88
2023-01-11T23:53:57.908Z,11.00
2023-01-11T23:56:44.018Z,14.85
2023-01-11T23:59:30.203Z,8.75
